sensor_id;sensor_type;location;lat;lon;timestamp;pressure;altitude;pressure_sealevel;temperature
14666;BMP280;7420;53.574;10.040;2023-03-01T00:01:32;102858.69;;;0.76
14666;BMP280;7420;53.574;10.040;2023-03-01T00:03:58;102854.56;;;0.72
14666;BMP280;7420;53.574;10.040;2023-03-01T00:06:24;102859.81;;;0.72
14666;BMP280;7420;53.574;10.040;2023-03-01T00:08:50;102861.09;;;0.79
14666;BMP280;7420;53.574;10.040;2023-03-01T00:11:20;102857.94;;;0.74
14666;BMP280;7420;53.574;10.040;2023-03-01T00:13:47;102854.84;;;0.68
14666;BMP280;7420;53.574;10.040;2023-03-01T00:16:31;102847.56;;;0.59
14666;BMP280;7420;53.574;10.040;2023-03-01T00:18:58;102846.81;;;0.57
14666;BMP280;7420;53.574;10.040;2023-03-01T00:21:25;102845.59;;;0.62
14666;BMP280;7420;53.574;10.040;2023-03-01T00:23:51;102838.03;;;0.58
14666;BMP280;7420;53.574;10.040;2023-03-01T00:26:18;102844.50;;;0.52
14666;BMP280;7420;53.574;10.040;2023-03-01T00:28:44;102841.69;;;0.55
14666;BMP280;7420;53.574;10.040;2023-03-01T00:31:13;102846.91;;;0.41
14666;BMP280;7420;53.574;10.040;2023-03-01T00:33:39;102848.59;;;0.42
14666;BMP280;7420;53.574;10.040;2023-03-01T00:36:06;102844.13;;;0.44
14666;BMP280;7420;53.574;10.040;2023-03-01T00:38:35;102848.59;;;0.42
14666;BMP280;7420;53.574;10.040;2023-03-01T00:41:08;102844.28;;;0.41
14666;BMP280;7420;53.574;10.040;2023-03-01T00:43:34;102843.66;;;0.38
14666;BMP280;7420;53.574;10.040;2023-03-01T00:46:07;102838.84;;;0.30
14666;BMP280;7420;53.574;10.040;2023-03-01T00:48:33;102838.41;;;0.24
14666;BMP280;7420;53.574;10.040;2023-03-01T00:51:11;102831.47;;;0.23
14666;BMP280;7420;53.574;10.040;2023-03-01T00:53:37;102841.09;;;0.36
14666;BMP280;7420;53.574;10.040;2023-03-01T00:56:03;102838.88;;;0.44
14666;BMP280;7420;53.574;10.040;2023-03-01T00:58:29;102833.53;;;0.46
14666;BMP280;7420;53.574;10.040;2023-03-01T01:00:55;102845.03;;;0.43
14666;BMP280;7420;53.574;10.040;2023-03-01T01:03:21;102842.25;;;0.46
14666;BMP280;7420;53.574;10.040;2023-03-01T01:05:46;102843.38;;;0.42
14666;BMP280;7420;53.574;10.040;2023-03-01T01:08:12;102836.81;;;0.35
14666;BMP280;7420;53.574;10.040;2023-03-01T01:10:37;102820.38;;;0.33
14666;BMP280;7420;53.574;10.040;2023-03-01T01:13:03;102835.31;;;0.31
14666;BMP280;7420;53.574;10.040;2023-03-01T01:15:28;102834.38;;;0.32
14666;BMP280;7420;53.574;10.040;2023-03-01T01:17:53;102828.22;;;0.33
14666;BMP280;7420;53.574;10.040;2023-03-01T01:20:20;102825.13;;;0.41
14666;BMP280;7420;53.574;10.040;2023-03-01T01:22:45;102818.50;;;0.49
14666;BMP280;7420;53.574;10.040;2023-03-01T01:25:11;102815.78;;;0.51
14666;BMP280;7420;53.574;10.040;2023-03-01T01:27:36;102823.00;;;0.47
14666;BMP280;7420;53.574;10.040;2023-03-01T01:30:03;102823.06;;;0.46
14666;BMP280;7420;53.574;10.040;2023-03-01T01:32:28;102827.28;;;0.48
14666;BMP280;7420;53.574;10.040;2023-03-01T01:34:54;102813.06;;;0.38
14666;BMP280;7420;53.574;10.040;2023-03-01T01:37:19;102811.78;;;0.45
14666;BMP280;7420;53.574;10.040;2023-03-01T01:39:45;102812.78;;;0.43
14666;BMP280;7420;53.574;10.040;2023-03-01T01:42:17;102810.84;;;0.46
14666;BMP280;7420;53.574;10.040;2023-03-01T01:44:45;102806.34;;;0.48
14666;BMP280;7420;53.574;10.040;2023-03-01T01:47:17;102807.34;;;0.46
14666;BMP280;7420;53.574;10.040;2023-03-01T01:49:53;102798.31;;;0.51
14666;BMP280;7420;53.574;10.040;2023-03-01T01:52:24;102803.16;;;0.57
14666;BMP280;7420;53.574;10.040;2023-03-01T01:54:54;102803.88;;;0.59
14666;BMP280;7420;53.574;10.040;2023-03-01T01:57:25;102786.13;;;0.64
14666;BMP280;7420;53.574;10.040;2023-03-01T01:59:54;102788.56;;;0.67
14666;BMP280;7420;53.574;10.040;2023-03-01T02:02:22;102794.72;;;0.66
14666;BMP280;7420;53.574;10.040;2023-03-01T02:04:49;102791.28;;;0.66
14666;BMP280;7420;53.574;10.040;2023-03-01T02:07:20;102781.00;;;0.63
14666;BMP280;7420;53.574;10.040;2023-03-01T02:09:47;102785.19;;;0.65
14666;BMP280;7420;53.574;10.040;2023-03-01T02:12:15;102784.38;;;0.65
14666;BMP280;7420;53.574;10.040;2023-03-01T02:14:42;102776.78;;;0.60
14666;BMP280;7420;53.574;10.040;2023-03-01T02:17:08;102775.94;;;0.60
14666;BMP280;7420;53.574;10.040;2023-03-01T02:22:24;102777.53;;;0.62
14666;BMP280;7420;53.574;10.040;2023-03-01T02:27:23;102778.56;;;0.60
14666;BMP280;7420;53.574;10.040;2023-03-01T02:29:52;102764.63;;;0.59
14666;BMP280;7420;53.574;10.040;2023-03-01T02:32:18;102774.16;;;0.60
14666;BMP280;7420;53.574;10.040;2023-03-01T02:34:52;102777.53;;;0.62
14666;BMP280;7420;53.574;10.040;2023-03-01T02:37:18;102769.41;;;0.67
14666;BMP280;7420;53.574;10.040;2023-03-01T02:39:53;102768.34;;;0.69
14666;BMP280;7420;53.574;10.040;2023-03-01T02:42:26;102776.56;;;0.77
14666;BMP280;7420;53.574;10.040;2023-03-01T02:44:51;102770.41;;;0.78
14666;BMP280;7420;53.574;10.040;2023-03-01T02:47:17;102773.00;;;0.78
14666;BMP280;7420;53.574;10.040;2023-03-01T02:49:42;102778.44;;;0.75
14666;BMP280;7420;53.574;10.040;2023-03-01T02:52:11;102768.28;;;0.71
14666;BMP280;7420;53.574;10.040;2023-03-01T02:55:11;102767.72;;;0.66
14666;BMP280;7420;53.574;10.040;2023-03-01T02:57:39;102765.19;;;0.64
14666;BMP280;7420;53.574;10.040;2023-03-01T03:00:18;102759.66;;;0.69
14666;BMP280;7420;53.574;10.040;2023-03-01T03:02:50;102769.28;;;0.68
14666;BMP280;7420;53.574;10.040;2023-03-01T03:05:20;102763.50;;;0.63
14666;BMP280;7420;53.574;10.040;2023-03-01T03:07:47;102768.72;;;0.63
14666;BMP280;7420;53.574;10.040;2023-03-01T03:10:19;102757.63;;;0.60
14666;BMP280;7420;53.574;10.040;2023-03-01T03:12:53;102755.13;;;0.58
14666;BMP280;7420;53.574;10.040;2023-03-01T03:15:19;102749.22;;;0.55
14666;BMP280;7420;53.574;10.040;2023-03-01T03:17:46;102749.97;;;0.57
14666;BMP280;7420;53.574;10.040;2023-03-01T03:20:13;102753.63;;;0.54
14666;BMP280;7420;53.574;10.040;2023-03-01T03:22:44;102755.94;;;0.59
14666;BMP280;7420;53.574;10.040;2023-03-01T03:25:10;102757.00;;;0.56
14666;BMP280;7420;53.574;10.040;2023-03-01T03:27:40;102744.91;;;0.54
14666;BMP280;7420;53.574;10.040;2023-03-01T03:30:07;102751.53;;;0.59
14666;BMP280;7420;53.574;10.040;2023-03-01T03:32:39;102754.16;;;0.59
14666;BMP280;7420;53.574;10.040;2023-03-01T03:37:39;102745.72;;;0.68
14666;BMP280;7420;53.574;10.040;2023-03-01T03:40:24;102740.28;;;0.71
14666;BMP280;7420;53.574;10.040;2023-03-01T03:42:49;102745.16;;;0.77
14666;BMP280;7420;53.574;10.040;2023-03-01T03:45:16;102750.00;;;0.83
14666;BMP280;7420;53.574;10.040;2023-03-01T03:47:42;102736.72;;;0.86
14666;BMP280;7420;53.574;10.040;2023-03-01T03:50:09;102741.19;;;0.84
14666;BMP280;7420;53.574;10.040;2023-03-01T03:52:34;102734.72;;;0.90
14666;BMP280;7420;53.574;10.040;2023-03-01T03:54:59;102730.34;;;0.90
14666;BMP280;7420;53.574;10.040;2023-03-01T03:57:25;102730.03;;;0.95
14666;BMP280;7420;53.574;10.040;2023-03-01T03:59:50;102724.72;;;0.96
14666;BMP280;7420;53.574;10.040;2023-03-01T04:02:15;102733.28;;;0.98
14666;BMP280;7420;53.574;10.040;2023-03-01T04:04:50;102732.69;;;1.07
14666;BMP280;7420;53.574;10.040;2023-03-01T04:07:18;102725.78;;;1.06
14666;BMP280;7420;53.574;10.040;2023-03-01T04:09:44;102724.81;;;1.07
14666;BMP280;7420;53.574;10.040;2023-03-01T04:12:09;102725.38;;;1.12
14666;BMP280;7420;53.574;10.040;2023-03-01T04:14:36;102718.66;;;1.08
14666;BMP280;7420;53.574;10.040;2023-03-01T04:17:02;102725.50;;;1.11
14666;BMP280;7420;53.574;10.040;2023-03-01T04:19:33;102718.06;;;1.17
14666;BMP280;7420;53.574;10.040;2023-03-01T04:22:03;102719.94;;;1.15
14666;BMP280;7420;53.574;10.040;2023-03-01T04:24:35;102719.94;;;1.15
14666;BMP280;7420;53.574;10.040;2023-03-01T04:27:00;102724.78;;;1.21
14666;BMP280;7420;53.574;10.040;2023-03-01T04:29:26;102726.88;;;1.28
14666;BMP280;7420;53.574;10.040;2023-03-01T04:31:51;102725.94;;;1.29
14666;BMP280;7420;53.574;10.040;2023-03-01T04:34:16;102721.34;;;1.33
14666;BMP280;7420;53.574;10.040;2023-03-01T04:36:42;102729.50;;;1.28
14666;BMP280;7420;53.574;10.040;2023-03-01T04:39:07;102724.38;;;1.27
14666;BMP280;7420;53.574;10.040;2023-03-01T04:41:38;102727.53;;;1.32
14666;BMP280;7420;53.574;10.040;2023-03-01T04:44:08;102720.41;;;1.34
14666;BMP280;7420;53.574;10.040;2023-03-01T04:46:35;102729.53;;;1.41
14666;BMP280;7420;53.574;10.040;2023-03-01T04:49:00;102729.03;;;1.48
14666;BMP280;7420;53.574;10.040;2023-03-01T04:51:26;102728.19;;;1.48
14666;BMP280;7420;53.574;10.040;2023-03-01T04:53:51;102725.75;;;1.45
14666;BMP280;7420;53.574;10.040;2023-03-01T04:56:17;102731.31;;;1.40
14666;BMP280;7420;53.574;10.040;2023-03-01T04:58:45;102730.25;;;1.43
14666;BMP280;7420;53.574;10.040;2023-03-01T05:01:12;102728.59;;;1.42
14666;BMP280;7420;53.574;10.040;2023-03-01T05:03:50;102719.91;;;1.54
14666;BMP280;7420;53.574;10.040;2023-03-01T05:06:16;102720.75;;;1.54
14666;BMP280;7420;53.574;10.040;2023-03-01T05:08:43;102720.44;;;1.59
14666;BMP280;7420;53.574;10.040;2023-03-01T05:11:09;102709.22;;;1.57
14666;BMP280;7420;53.574;10.040;2023-03-01T05:13:36;102720.84;;;1.65
14666;BMP280;7420;53.574;10.040;2023-03-01T05:16:02;102718.75;;;1.70
14666;BMP280;7420;53.574;10.040;2023-03-01T05:18:31;102719.50;;;1.72
14666;BMP280;7420;53.574;10.040;2023-03-01T05:21:10;102720.97;;;1.76
14666;BMP280;7420;53.574;10.040;2023-03-01T05:23:36;102719.19;;;1.77
14666;BMP280;7420;53.574;10.040;2023-03-01T05:26:02;102725.28;;;1.77
14666;BMP280;7420;53.574;10.040;2023-03-01T05:28:29;102726.75;;;1.81
14666;BMP280;7420;53.574;10.040;2023-03-01T05:30:55;102721.28;;;1.84
14666;BMP280;7420;53.574;10.040;2023-03-01T05:33:21;102722.34;;;1.82
14666;BMP280;7420;53.574;10.040;2023-03-01T05:35:47;102734.28;;;1.86
14666;BMP280;7420;53.574;10.040;2023-03-01T05:38:14;102722.56;;;1.91
14666;BMP280;7420;53.574;10.040;2023-03-01T05:40:41;102721.63;;;1.92
14666;BMP280;7420;53.574;10.040;2023-03-01T05:43:07;102714.69;;;1.91
14666;BMP280;7420;53.574;10.040;2023-03-01T05:45:36;102719.09;;;1.91
14666;BMP280;7420;53.574;10.040;2023-03-01T05:48:02;102706.81;;;1.91
14666;BMP280;7420;53.574;10.040;2023-03-01T05:50:29;102710.28;;;1.92
14666;BMP280;7420;53.574;10.040;2023-03-01T05:52:58;102708.50;;;1.92
14666;BMP280;7420;53.574;10.040;2023-03-01T05:55:24;102707.97;;;2.00
14666;BMP280;7420;53.574;10.040;2023-03-01T05:57:49;102708.91;;;1.99
14666;BMP280;7420;53.574;10.040;2023-03-01T06:00:17;102705.53;;;1.97
14666;BMP280;7420;53.574;10.040;2023-03-01T06:02:43;102694.13;;;1.85
14666;BMP280;7420;53.574;10.040;2023-03-01T06:05:10;102688.16;;;1.83
14666;BMP280;7420;53.574;10.040;2023-03-01T06:07:36;102702.41;;;1.92
14666;BMP280;7420;53.574;10.040;2023-03-01T06:10:03;102698.63;;;1.96
14666;BMP280;7420;53.574;10.040;2023-03-01T06:12:36;102697.34;;;1.89
14666;BMP280;7420;53.574;10.040;2023-03-01T06:15:03;102697.34;;;1.89
14666;BMP280;7420;53.574;10.040;2023-03-01T06:17:30;102693.78;;;1.90
14666;BMP280;7420;53.574;10.040;2023-03-01T06:19:56;102701.47;;;1.93
14666;BMP280;7420;53.574;10.040;2023-03-01T06:22:21;102695.47;;;1.91
14666;BMP280;7420;53.574;10.040;2023-03-01T06:24:47;102705.97;;;1.91
14666;BMP280;7420;53.574;10.040;2023-03-01T06:27:12;102688.75;;;1.99
14666;BMP280;7420;53.574;10.040;2023-03-01T06:29:37;102692.31;;;1.98
14666;BMP280;7420;53.574;10.040;2023-03-01T06:32:03;102694.63;;;2.03
14666;BMP280;7420;53.574;10.040;2023-03-01T06:34:29;102698.94;;;2.04
14666;BMP280;7420;53.574;10.040;2023-03-01T06:36:54;102698.72;;;2.07
14666;BMP280;7420;53.574;10.040;2023-03-01T06:39:19;102702.09;;;2.09
14666;BMP280;7420;53.574;10.040;2023-03-01T06:41:45;102706.47;;;2.08
14666;BMP280;7420;53.574;10.040;2023-03-01T06:44:10;102704.50;;;2.12
14666;BMP280;7420;53.574;10.040;2023-03-01T06:46:35;102706.91;;;2.15
14666;BMP280;7420;53.574;10.040;2023-03-01T06:49:02;102711.22;;;2.16
14666;BMP280;7420;53.574;10.040;2023-03-01T06:51:29;102704.69;;;2.21
14666;BMP280;7420;53.574;10.040;2023-03-01T06:53:55;102715.47;;;2.29
14666;BMP280;7420;53.574;10.040;2023-03-01T06:56:20;102716.31;;;2.29
14666;BMP280;7420;53.574;10.040;2023-03-01T06:58:45;102716.81;;;2.34
14666;BMP280;7420;53.574;10.040;2023-03-01T07:01:11;102722.81;;;2.36
14666;BMP280;7420;53.574;10.040;2023-03-01T07:03:36;102710.84;;;2.32
14666;BMP280;7420;53.574;10.040;2023-03-01T07:06:01;102721.66;;;2.40
14666;BMP280;7420;53.574;10.040;2023-03-01T07:08:27;102717.13;;;2.42
14666;BMP280;7420;53.574;10.040;2023-03-01T07:10:56;102715.75;;;2.49
14666;BMP280;7420;53.574;10.040;2023-03-01T07:13:21;102714.41;;;2.67
14666;BMP280;7420;53.574;10.040;2023-03-01T07:15:47;102706.16;;;2.61
14666;BMP280;7420;53.574;10.040;2023-03-01T07:18:12;102692.38;;;2.57
14666;BMP280;7420;53.574;10.040;2023-03-01T07:20:37;102700.25;;;2.57
14666;BMP280;7420;53.574;10.040;2023-03-01T07:23:05;102697.63;;;2.57
14666;BMP280;7420;53.574;10.040;2023-03-01T07:25:30;102690.72;;;2.56
14666;BMP280;7420;53.574;10.040;2023-03-01T07:27:56;102693.03;;;2.61
14666;BMP280;7420;53.574;10.040;2023-03-01T07:30:21;102689.44;;;2.62
14666;BMP280;7420;53.574;10.040;2023-03-01T07:32:47;102693.31;;;2.69
14666;BMP280;7420;53.574;10.040;2023-03-01T07:35:12;102692.75;;;2.76
14666;BMP280;7420;53.574;10.040;2023-03-01T07:37:38;102688.56;;;2.74
14666;BMP280;7420;53.574;10.040;2023-03-01T07:40:03;102687.34;;;2.90
14666;BMP280;7420;53.574;10.040;2023-03-01T07:42:29;102682.56;;;2.95
14666;BMP280;7420;53.574;10.040;2023-03-01T07:44:54;102696.25;;;2.88
14666;BMP280;7420;53.574;10.040;2023-03-01T07:47:19;102696.38;;;2.86
14666;BMP280;7420;53.574;10.040;2023-03-01T07:49:45;102695.81;;;2.94
14666;BMP280;7420;53.574;10.040;2023-03-01T07:52:11;102696.19;;;3.00
14666;BMP280;7420;53.574;10.040;2023-03-01T07:54:37;102691.72;;;3.13
14666;BMP280;7420;53.574;10.040;2023-03-01T07:57:02;102693.28;;;3.16
14666;BMP280;7420;53.574;10.040;2023-03-01T07:59:28;102697.25;;;3.21
14666;BMP280;7420;53.574;10.040;2023-03-01T08:01:55;102695.06;;;3.15
14666;BMP280;7420;53.574;10.040;2023-03-01T08:04:21;102682.28;;;3.11
14666;BMP280;7420;53.574;10.040;2023-03-01T08:06:47;102698.66;;;3.14
14666;BMP280;7420;53.574;10.040;2023-03-01T08:09:12;102708.34;;;3.14
14666;BMP280;7420;53.574;10.040;2023-03-01T08:11:37;102712.06;;;3.22
14666;BMP280;7420;53.574;10.040;2023-03-01T08:14:03;102712.06;;;3.22
14666;BMP280;7420;53.574;10.040;2023-03-01T08:16:28;102706.03;;;3.09
14666;BMP280;7420;53.574;10.040;2023-03-01T08:18:54;102711.84;;;3.25
14666;BMP280;7420;53.574;10.040;2023-03-01T08:21:22;102717.84;;;3.27
14666;BMP280;7420;53.574;10.040;2023-03-01T08:23:47;102703.97;;;3.36
14666;BMP280;7420;53.574;10.040;2023-03-01T08:26:15;102711.91;;;3.47
14666;BMP280;7420;53.574;10.040;2023-03-01T08:28:41;102709.63;;;3.53
14666;BMP280;7420;53.574;10.040;2023-03-01T08:31:24;102707.72;;;3.55
14666;BMP280;7420;53.574;10.040;2023-03-01T08:33:51;102699.03;;;3.66
14666;BMP280;7420;53.574;10.040;2023-03-01T08:36:24;102708.59;;;3.78
14666;BMP280;7420;53.574;10.040;2023-03-01T08:38:50;102701.44;;;3.69
14666;BMP280;7420;53.574;10.040;2023-03-01T08:41:16;102706.84;;;3.78
14666;BMP280;7420;53.574;10.040;2023-03-01T08:43:41;102709.22;;;3.81
14666;BMP280;7420;53.574;10.040;2023-03-01T08:46:07;102704.31;;;3.88
14666;BMP280;7420;53.574;10.040;2023-03-01T08:48:32;102706.00;;;4.00
14666;BMP280;7420;53.574;10.040;2023-03-01T08:51:14;102702.91;;;4.06
14666;BMP280;7420;53.574;10.040;2023-03-01T08:53:40;102699.78;;;4.23
14666;BMP280;7420;53.574;10.040;2023-03-01T08:56:05;102704.31;;;4.32
14666;BMP280;7420;53.574;10.040;2023-03-01T08:58:31;102712.94;;;4.23
14666;BMP280;7420;53.574;10.040;2023-03-01T09:00:57;102711.75;;;4.27
14666;BMP280;7420;53.574;10.040;2023-03-01T09:03:23;102716.53;;;4.22
14666;BMP280;7420;53.574;10.040;2023-03-01T09:05:50;102717.25;;;4.24
14666;BMP280;7420;53.574;10.040;2023-03-01T09:08:19;102715.00;;;4.30
14666;BMP280;7420;53.574;10.040;2023-03-01T09:10:44;102713.19;;;4.20
14666;BMP280;7420;53.574;10.040;2023-03-01T09:13:10;102714.16;;;4.30
14666;BMP280;7420;53.574;10.040;2023-03-01T09:15:41;102711.13;;;4.34
14666;BMP280;7420;53.574;10.040;2023-03-01T09:18:06;102710.06;;;4.26
14666;BMP280;7420;53.574;10.040;2023-03-01T09:20:31;102707.44;;;4.48
14666;BMP280;7420;53.574;10.040;2023-03-01T09:22:57;102721.03;;;4.52
14666;BMP280;7420;53.574;10.040;2023-03-01T09:25:23;102713.66;;;4.47
14666;BMP280;7420;53.574;10.040;2023-03-01T09:27:52;102716.25;;;4.57
14666;BMP280;7420;53.574;10.040;2023-03-01T09:30:18;102719.97;;;4.55
14666;BMP280;7420;53.574;10.040;2023-03-01T09:32:43;102717.00;;;4.49
14666;BMP280;7420;53.574;10.040;2023-03-01T09:35:10;102713.38;;;4.60
14666;BMP280;7420;53.574;10.040;2023-03-01T09:37:36;102714.00;;;4.42
14666;BMP280;7420;53.574;10.040;2023-03-01T09:40:05;102719.50;;;4.61
14666;BMP280;7420;53.574;10.040;2023-03-01T09:42:34;102704.22;;;4.86
14666;BMP280;7420;53.574;10.040;2023-03-01T09:45:11;102715.66;;;5.07
14666;BMP280;7420;53.574;10.040;2023-03-01T09:47:40;102717.25;;;4.88
14666;BMP280;7420;53.574;10.040;2023-03-01T09:53:01;102713.19;;;5.26
14666;BMP280;7420;53.574;10.040;2023-03-01T09:55:31;102708.22;;;5.33
14666;BMP280;7420;53.574;10.040;2023-03-01T09:58:39;102703.19;;;5.30
14666;BMP280;7420;53.574;10.040;2023-03-01T10:04:09;102709.38;;;5.19
14666;BMP280;7420;53.574;10.040;2023-03-01T10:06:29;102703.50;;;5.36
14666;BMP280;7420;53.574;10.040;2023-03-01T10:09:02;102706.72;;;5.19
14666;BMP280;7420;53.574;10.040;2023-03-01T10:11:33;102702.03;;;4.91
14666;BMP280;7420;53.574;10.040;2023-03-01T10:19:38;102712.06;;;5.29
14666;BMP280;7420;53.574;10.040;2023-03-01T10:22:15;102710.34;;;5.18
14666;BMP280;7420;53.574;10.040;2023-03-01T10:24:41;102712.81;;;5.20
14666;BMP280;7420;53.574;10.040;2023-03-01T10:27:21;102713.56;;;5.42
14666;BMP280;7420;53.574;10.040;2023-03-01T10:30:10;102708.34;;;5.52
14666;BMP280;7420;53.574;10.040;2023-03-01T10:32:38;102700.41;;;5.31
14666;BMP280;7420;53.574;10.040;2023-03-01T10:35:22;102704.88;;;5.31
14666;BMP280;7420;53.574;10.040;2023-03-01T10:37:58;102703.06;;;5.52
14666;BMP280;7420;53.574;10.040;2023-03-01T10:40:23;102706.25;;;5.46
14666;BMP280;7420;53.574;10.040;2023-03-01T10:42:49;102703.88;;;5.43
14666;BMP280;7420;53.574;10.040;2023-03-01T10:48:12;102701.72;;;5.37
14666;BMP280;7420;53.574;10.040;2023-03-01T10:50:45;102708.44;;;5.61
14666;BMP280;7420;53.574;10.040;2023-03-01T10:53:26;102704.03;;;5.71
14666;BMP280;7420;53.574;10.040;2023-03-01T10:56:11;102705.13;;;5.48
14666;BMP280;7420;53.574;10.040;2023-03-01T10:58:40;102707.13;;;5.76
14666;BMP280;7420;53.574;10.040;2023-03-01T11:01:06;102696.19;;;6.01
14666;BMP280;7420;53.574;10.040;2023-03-01T11:06:35;102687.81;;;5.96
14666;BMP280;7420;53.574;10.040;2023-03-01T11:09:20;102683.28;;;6.07
14666;BMP280;7420;53.574;10.040;2023-03-01T11:11:51;102689.22;;;6.00
14666;BMP280;7420;53.574;10.040;2023-03-01T11:14:20;102683.13;;;6.09
14666;BMP280;7420;53.574;10.040;2023-03-01T11:17:25;102683.84;;;6.11
14666;BMP280;7420;53.574;10.040;2023-03-01T11:22:58;102684.94;;;6.48
14666;BMP280;7420;53.574;10.040;2023-03-01T11:25:47;102680.81;;;6.74
14666;BMP280;7420;53.574;10.040;2023-03-01T11:28:17;102686.13;;;7.30
14666;BMP280;7420;53.574;10.040;2023-03-01T11:31:04;102680.25;;;7.36
14666;BMP280;7420;53.574;10.040;2023-03-01T11:33:39;102680.19;;;7.74
14666;BMP280;7420;53.574;10.040;2023-03-01T11:38:43;102677.41;;;7.66
14666;BMP280;7420;53.574;10.040;2023-03-01T11:41:15;102670.38;;;7.93
14666;BMP280;7420;53.574;10.040;2023-03-01T11:52:26;102658.41;;;8.88
14666;BMP280;7420;53.574;10.040;2023-03-01T12:06:28;102654.34;;;9.61
14666;BMP280;7420;53.574;10.040;2023-03-01T12:17:48;102653.78;;;10.34
14666;BMP280;7420;53.574;10.040;2023-03-01T12:20:37;102652.41;;;10.87
14666;BMP280;7420;53.574;10.040;2023-03-01T12:25:52;102642.59;;;11.51
14666;BMP280;7420;53.574;10.040;2023-03-01T12:28:35;102636.09;;;11.46
14666;BMP280;7420;53.574;10.040;2023-03-01T12:31:33;102641.13;;;12.03
14666;BMP280;7420;53.574;10.040;2023-03-01T12:39:50;102621.56;;;11.80
14666;BMP280;7420;53.574;10.040;2023-03-01T12:45:21;102617.38;;;12.77
14666;BMP280;7420;53.574;10.040;2023-03-01T12:50:39;102599.88;;;11.91
14666;BMP280;7420;53.574;10.040;2023-03-01T12:53:22;102596.84;;;12.63
14666;BMP280;7420;53.574;10.040;2023-03-01T12:55:50;102609.06;;;13.39
14666;BMP280;7420;53.574;10.040;2023-03-01T13:11:57;102595.63;;;13.62
14666;BMP280;7420;53.574;10.040;2023-03-01T13:16:51;102590.72;;;14.79
14666;BMP280;7420;53.574;10.040;2023-03-01T13:21:43;102593.66;;;14.84
14666;BMP280;7420;53.574;10.040;2023-03-01T13:24:42;102590.78;;;14.86
14666;BMP280;7420;53.574;10.040;2023-03-01T13:29:46;102598.31;;;15.45
14666;BMP280;7420;53.574;10.040;2023-03-01T13:32:38;102598.50;;;16.64
14666;BMP280;7420;53.574;10.040;2023-03-01T13:35:50;102591.25;;;16.65
14666;BMP280;7420;53.574;10.040;2023-03-01T13:41:02;102597.47;;;16.98
14666;BMP280;7420;53.574;10.040;2023-03-01T13:43:38;102600.19;;;17.11
14666;BMP280;7420;53.574;10.040;2023-03-01T13:46:21;102597.09;;;19.46
14666;BMP280;7420;53.574;10.040;2023-03-01T13:48:51;102613.53;;;23.35
14666;BMP280;7420;53.574;10.040;2023-03-01T13:51:28;102617.13;;;24.59
14666;BMP280;7420;53.574;10.040;2023-03-01T13:53:55;102609.94;;;22.69
14666;BMP280;7420;53.574;10.040;2023-03-01T13:56:25;102619.28;;;23.38
14666;BMP280;7420;53.574;10.040;2023-03-01T13:58:53;102606.91;;;21.87
14666;BMP280;7420;53.574;10.040;2023-03-01T14:01:25;102612.75;;;22.90
14666;BMP280;7420;53.574;10.040;2023-03-01T14:03:51;102615.25;;;24.38
14666;BMP280;7420;53.574;10.040;2023-03-01T14:06:21;102620.75;;;24.64
14666;BMP280;7420;53.574;10.040;2023-03-01T14:08:49;102612.38;;;26.21
14666;BMP280;7420;53.574;10.040;2023-03-01T14:20:26;102589.53;;;24.72
14666;BMP280;7420;53.574;10.040;2023-03-01T14:22:55;102587.13;;;25.38
14666;BMP280;7420;53.574;10.040;2023-03-01T14:28:02;102593.19;;;26.97
14666;BMP280;7420;53.574;10.040;2023-03-01T14:30:52;102580.81;;;25.28
14666;BMP280;7420;53.574;10.040;2023-03-01T14:33:39;102587.22;;;27.05
14666;BMP280;7420;53.574;10.040;2023-03-01T14:36:12;102572.97;;;25.82
14666;BMP280;7420;53.574;10.040;2023-03-01T14:38:46;102567.28;;;25.94
14666;BMP280;7420;53.574;10.040;2023-03-01T14:41:23;102566.69;;;25.36
14666;BMP280;7420;53.574;10.040;2023-03-01T14:43:58;102560.75;;;25.44
14666;BMP280;7420;53.574;10.040;2023-03-01T14:46:41;102560.91;;;25.73
14666;BMP280;7420;53.574;10.040;2023-03-01T14:49:17;102559.53;;;24.93
14666;BMP280;7420;53.574;10.040;2023-03-01T14:51:58;102548.28;;;24.27
14666;BMP280;7420;53.574;10.040;2023-03-01T14:54:27;102546.38;;;23.80
14666;BMP280;7420;53.574;10.040;2023-03-01T14:56:58;102537.09;;;24.76
14666;BMP280;7420;53.574;10.040;2023-03-01T14:59:25;102532.69;;;24.18
14666;BMP280;7420;53.574;10.040;2023-03-01T15:01:51;102525.13;;;23.77
14666;BMP280;7420;53.574;10.040;2023-03-01T15:04:18;102517.84;;;24.52
14666;BMP280;7420;53.574;10.040;2023-03-01T15:06:45;102521.09;;;24.27
14666;BMP280;7420;53.574;10.040;2023-03-01T15:09:15;102511.53;;;23.55
14666;BMP280;7420;53.574;10.040;2023-03-01T15:11:42;102515.72;;;24.32
14666;BMP280;7420;53.574;10.040;2023-03-01T15:14:41;102515.63;;;24.22
14666;BMP280;7420;53.574;10.040;2023-03-01T15:17:26;102509.66;;;22.85
14666;BMP280;7420;53.574;10.040;2023-03-01T15:19:53;102502.06;;;22.10
14666;BMP280;7420;53.574;10.040;2023-03-01T15:22:19;102495.19;;;20.94
14666;BMP280;7420;53.574;10.040;2023-03-01T15:24:51;102497.97;;;21.57
14666;BMP280;7420;53.574;10.040;2023-03-01T15:27:22;102500.19;;;20.80
14666;BMP280;7420;53.574;10.040;2023-03-01T15:29:53;102493.81;;;20.63
14666;BMP280;7420;53.574;10.040;2023-03-01T15:32:40;102487.94;;;20.54
14666;BMP280;7420;53.574;10.040;2023-03-01T15:35:38;102491.16;;;21.43
14666;BMP280;7420;53.574;10.040;2023-03-01T15:38:22;102485.94;;;22.31
14666;BMP280;7420;53.574;10.040;2023-03-01T15:40:51;102498.78;;;21.57
14666;BMP280;7420;53.574;10.040;2023-03-01T15:43:36;102492.97;;;21.03
14666;BMP280;7420;53.574;10.040;2023-03-01T15:46:02;102479.78;;;20.31
14666;BMP280;7420;53.574;10.040;2023-03-01T15:48:28;102479.03;;;19.95
14666;BMP280;7420;53.574;10.040;2023-03-01T15:50:57;102485.25;;;20.25
14666;BMP280;7420;53.574;10.040;2023-03-01T15:53:23;102489.56;;;19.49
14666;BMP280;7420;53.574;10.040;2023-03-01T15:55:49;102471.75;;;19.06
14666;BMP280;7420;53.574;10.040;2023-03-01T15:58:21;102474.13;;;19.20
14666;BMP280;7420;53.574;10.040;2023-03-01T16:00:48;102475.09;;;18.83
14666;BMP280;7420;53.574;10.040;2023-03-01T16:03:14;102466.34;;;18.63
14666;BMP280;7420;53.574;10.040;2023-03-01T16:05:39;102471.22;;;18.24
14666;BMP280;7420;53.574;10.040;2023-03-01T16:08:06;102471.59;;;17.27
14666;BMP280;7420;53.574;10.040;2023-03-01T16:10:32;102464.50;;;15.97